Time;durP1;ratioP1;P1;durP2;ratioP2;P2;SDS_P1;SDS_P2;PMS_P1;PMS_P2;Temp;Humidity;BMP_temperature;BMP_pressure;BME280_temperature;BME280_humidity;BME280_pressure;Samples;Min_cycle;Max_cycle;Signal;HPM_P1;HPM_P2
2021/12/23 00:00:23;;;;;;;0.00;0.00;;;;;19.90;100458.00;;;;5109315;28;20181;-78
2021/12/23 00:02:53;;;;;;;0.00;0.00;;;;;19.80;100448.00;;;;5108849;28;20116;-76
2021/12/23 00:05:23;;;;;;;0.00;0.00;;;;;19.70;100467.00;;;;5108881;28;20075;-75
2021/12/23 00:07:52;;;;;;;0.00;0.00;;;;;19.50;100476.00;;;;5108564;28;20518;-76
2021/12/23 00:10:22;;;;;;;0.57;0.57;;;;;19.40;100452.00;;;;5108756;28;20067;-76
2021/12/23 00:12:51;;;;;;;0.00;0.00;;;;;19.30;100484.00;;;;5108541;28;20035;-76
2021/12/23 00:16:01;;;;;;;0.00;0.00;;;;;19.30;100474.00;;;;5108874;28;20050;-76
2021/12/23 00:23:57;;;;;;;0.75;0.20;;;;;19.00;100473.00;;;;5108282;28;20043;-77
2021/12/23 00:26:29;;;;;;;0.60;0.38;;;;;18.90;100501.00;;;;5108045;28;20414;-74
2021/12/23 00:29:00;;;;;;;0.47;0.40;;;;;18.90;100472.00;;;;5107180;28;20047;-76
2021/12/23 00:31:30;;;;;;;0.00;0.00;;;;;18.70;100469.00;;;;5107992;28;20044;-77
2021/12/23 00:34:00;;;;;;;0.00;0.00;;;;;18.60;100472.00;;;;5108173;28;20516;-76
2021/12/23 00:36:32;;;;;;;0.00;0.00;;;;;18.50;100474.00;;;;5108389;28;20490;-78
2021/12/23 00:39:02;;;;;;;0.65;0.65;;;;;18.40;100486.00;;;;5109654;28;20034;-76
2021/12/23 00:41:32;;;;;;;;;;;;;18.40;100499.00;;;;5110061;28;20527;-76
2021/12/23 00:44:01;;;;;;;0.10;0.10;;;;;18.30;100468.00;;;;5107027;28;19965;-77
2021/12/23 00:46:31;;;;;;;0.20;0.20;;;;;18.40;100472.00;;;;5109276;28;20035;-76
2021/12/23 00:49:01;;;;;;;0.00;0.00;;;;;18.30;100501.00;;;;5109853;28;20055;-74
2021/12/23 00:51:32;;;;;;;0.00;0.00;;;;;18.20;100498.00;;;;5108187;28;20051;-78
2021/12/23 00:54:05;;;;;;;0.00;0.00;;;;;18.10;100496.00;;;;5107716;28;20062;-78
2021/12/23 00:56:37;;;;;;;0.13;0.13;;;;;18.00;100526.00;;;;5107096;28;20296;-76
2021/12/23 00:59:10;;;;;;;0.00;0.00;;;;;17.90;100522.00;;;;5106828;28;20122;-75
2021/12/23 01:01:41;;;;;;;0.00;0.00;;;;;17.80;100507.00;;;;5104636;28;20490;-76
2021/12/23 01:04:11;;;;;;;0.00;0.00;;;;;17.80;100511.00;;;;5107353;28;20062;-76
2021/12/23 01:06:41;;;;;;;0.00;0.00;;;;;17.80;100527.00;;;;5108201;28;20504;-76
2021/12/23 01:09:10;;;;;;;0.65;0.65;;;;;17.80;100538.00;;;;5107172;28;20047;-76
2021/12/23 01:11:41;;;;;;;3.30;0.60;;;;;17.90;100536.00;;;;5105112;28;20043;-77
2021/12/23 01:14:27;;;;;;;0.00;0.00;;;;;17.80;100520.00;;;;5106367;27;20497;-76
2021/12/23 01:19:28;;;;;;;0.00;0.00;;;;;17.80;100540.00;;;;5106726;28;20054;-75
2021/12/23 01:21:57;;;;;;;0.03;0.03;;;;;17.80;100547.00;;;;5106387;28;20039;-77
2021/12/23 01:24:30;;;;;;;0.00;0.00;;;;;17.90;100521.00;;;;5107158;27;20640;-76
2021/12/23 01:27:01;;;;;;;0.00;0.00;;;;;17.80;100524.00;;;;5106751;28;20039;-76
2021/12/23 01:29:31;;;;;;;0.00;0.00;;;;;17.80;100540.00;;;;5107006;28;20035;-76
2021/12/23 01:32:03;;;;;;;0.00;0.00;;;;;17.80;100528.00;;;;5107659;28;20046;-76
2021/12/23 01:34:35;;;;;;;0.00;0.00;;;;;17.80;100521.00;;;;5105870;28;20077;-76
2021/12/23 01:37:05;;;;;;;0.00;0.00;;;;;17.80;100539.00;;;;5107507;28;20425;-76
2021/12/23 01:39:35;;;;;;;0.00;0.00;;;;;17.70;100536.00;;;;5106633;28;20044;-76
2021/12/23 01:42:05;;;;;;;0.00;0.00;;;;;17.70;100529.00;;;;5107721;28;20462;-76
2021/12/23 01:44:34;;;;;;;0.00;0.00;;;;;17.60;100559.00;;;;5106510;28;20052;-76
2021/12/23 01:47:04;;;;;;;0.00;0.00;;;;;17.60;100527.00;;;;5106696;28;20051;-76
2021/12/23 01:49:34;;;;;;;0.00;0.00;;;;;17.50;100540.00;;;;5106658;28;20048;-75
2021/12/23 01:52:04;;;;;;;0.00;0.00;;;;;17.50;100545.00;;;;5106936;28;20043;-76
2021/12/23 01:54:33;;;;;;;0.00;0.00;;;;;17.60;100539.00;;;;5107193;28;20054;-76
2021/12/23 01:57:03;;;;;;;0.00;0.00;;;;;17.60;100557.00;;;;5106820;28;20047;-76
2021/12/23 01:59:33;;;;;;;0.00;0.00;;;;;17.70;100573.00;;;;5106217;28;20038;-76
2021/12/23 02:02:03;;;;;;;0.28;0.20;;;;;17.70;100553.00;;;;5106946;28;20075;-75
2021/12/23 02:04:33;;;;;;;0.10;0.10;;;;;17.70;100542.00;;;;5106040;28;20059;-76
2021/12/23 02:07:03;;;;;;;0.00;0.00;;;;;17.70;100558.00;;;;5106598;28;20046;-76
2021/12/23 02:09:32;;;;;;;0.30;0.30;;;;;17.60;100553.00;;;;5106618;28;20039;-75
2021/12/23 02:12:02;;;;;;;0.60;0.55;;;;;17.60;100556.00;;;;5106423;28;20039;-76
2021/12/23 02:14:31;;;;;;;0.00;0.00;;;;;17.50;100559.00;;;;5106871;28;20054;-76
2021/12/23 02:17:00;;;;;;;0.00;0.00;;;;;17.30;100531.00;;;;5106375;28;20055;-75
2021/12/23 02:19:32;;;;;;;0.00;0.00;;;;;17.30;100530.00;;;;5106620;28;20055;-76
2021/12/23 02:22:01;;;;;;;;;;;;;17.20;100549.00;;;;5106571;28;20075;-76
2021/12/23 02:24:30;;;;;;;0.00;0.00;;;;;17.20;100531.00;;;;5106487;28;19924;-75
2021/12/23 02:27:00;;;;;;;0.00;0.00;;;;;17.20;100540.00;;;;5106852;28;20039;-76
2021/12/23 02:29:30;;;;;;;0.00;0.00;;;;;17.10;100531.00;;;;5106241;28;20040;-76
2021/12/23 02:32:00;;;;;;;0.00;0.00;;;;;17.00;100480.00;;;;5105868;28;20040;-76
2021/12/23 02:34:29;;;;;;;0.00;0.00;;;;;17.00;100559.00;;;;5106141;28;20051;-76
2021/12/23 02:37:00;;;;;;;0.00;0.00;;;;;16.90;100530.00;;;;5106514;28;20055;-76
2021/12/23 02:39:30;;;;;;;0.00;0.00;;;;;16.80;100546.00;;;;5106070;28;20044;-75
2021/12/23 02:41:59;;;;;;;0.00;0.00;;;;;16.70;100553.00;;;;5106569;28;20691;-75
2021/12/23 02:44:29;;;;;;;0.00;0.00;;;;;16.70;100556.00;;;;5105582;28;20052;-76
2021/12/23 02:46:59;;;;;;;2.40;0.35;;;;;16.60;100553.00;;;;5106146;28;20506;-76
2021/12/23 02:49:28;;;;;;;0.03;0.03;;;;;16.70;100542.00;;;;5106241;28;20044;-76
2021/12/23 02:51:58;;;;;;;0.00;0.00;;;;;16.70;100537.00;;;;5106285;28;20046;-76
2021/12/23 02:54:27;;;;;;;0.00;0.00;;;;;16.60;100532.00;;;;5106155;28;20047;-76
2021/12/23 02:56:58;;;;;;;0.00;0.00;;;;;16.60;100552.00;;;;5104807;28;20040;-76
2021/12/23 02:59:27;;;;;;;0.00;0.00;;;;;16.60;100546.00;;;;5106038;28;20044;-75
2021/12/23 03:01:56;;;;;;;0.00;0.00;;;;;16.50;100556.00;;;;5105866;28;20052;-76
2021/12/23 03:04:26;;;;;;;0.00;0.00;;;;;16.50;100540.00;;;;5106300;28;20113;-76
2021/12/23 03:06:56;;;;;;;0.03;0.03;;;;;16.50;100542.00;;;;5113311;28;20399;-76
2021/12/23 03:09:26;;;;;;;0.00;0.00;;;;;16.50;100540.00;;;;5118389;28;20208;-76
2021/12/23 03:11:55;;;;;;;0.00;0.00;;;;;16.30;100547.00;;;;5112347;28;20043;-76
2021/12/23 03:14:25;;;;;;;0.00;0.00;;;;;16.30;100546.00;;;;5092319;28;20043;-75
2021/12/23 03:16:54;;;;;;;0.00;0.00;;;;;16.30;100533.00;;;;5109916;28;20433;-76
2021/12/23 03:19:24;;;;;;;1.60;0.30;;;;;16.40;100522.00;;;;5109522;28;20055;-76
2021/12/23 03:21:53;;;;;;;0.38;0.38;;;;;16.40;100521.00;;;;5109344;28;20040;-75
2021/12/23 03:24:23;;;;;;;0.00;0.00;;;;;16.40;100538.00;;;;5109371;28;20422;-75
2021/12/23 03:26:52;;;;;;;0.00;0.00;;;;;16.40;100517.00;;;;5109850;27;20434;-76
2021/12/23 03:29:22;;;;;;;0.00;0.00;;;;;16.40;100528.00;;;;5109597;28;20071;-75
2021/12/23 03:31:51;;;;;;;0.00;0.00;;;;;16.50;100524.00;;;;5108087;28;20506;-76
2021/12/23 03:34:21;;;;;;;0.00;0.00;;;;;16.40;100538.00;;;;5108992;28;20521;-75
2021/12/23 03:36:50;;;;;;;0.00;0.00;;;;;16.40;100533.00;;;;5107734;28;20464;-76
2021/12/23 03:39:20;;;;;;;0.20;0.20;;;;;16.50;100533.00;;;;5108871;28;20503;-75
2021/12/23 03:41:49;;;;;;;0.00;0.00;;;;;16.50;100534.00;;;;5109894;28;20036;-76
2021/12/23 03:44:19;;;;;;;0.00;0.00;;;;;16.40;100518.00;;;;5109223;28;20040;-75
2021/12/23 03:46:49;;;;;;;0.00;0.00;;;;;16.30;100508.00;;;;5108652;28;21111;-76
2021/12/23 03:49:18;;;;;;;0.00;0.00;;;;;16.30;100530.00;;;;5108630;28;20048;-76
2021/12/23 03:51:47;;;;;;;0.00;0.00;;;;;16.30;100500.00;;;;5108694;28;20044;-76
2021/12/23 03:54:17;;;;;;;0.00;0.00;;;;;16.20;100505.00;;;;5108539;28;20050;-76
2021/12/23 03:56:46;;;;;;;0.82;0.45;;;;;16.20;100520.00;;;;5109121;28;20049;-76
2021/12/23 03:59:16;;;;;;;0.00;0.00;;;;;16.30;100525.00;;;;5109236;27;20062;-76
2021/12/23 04:01:45;;;;;;;0.00;0.00;;;;;16.30;100520.00;;;;5107590;28;20048;-75
2021/12/23 04:04:15;;;;;;;0.00;0.00;;;;;16.30;100525.00;;;;5108221;28;20853;-75
2021/12/23 04:06:45;;;;;;;0.00;0.00;;;;;16.20;100498.00;;;;5108879;28;20038;-76
2021/12/23 04:09:14;;;;;;;0.00;0.00;;;;;16.20;100509.00;;;;5108930;28;20043;-76
2021/12/23 04:11:44;;;;;;;0.00;0.00;;;;;16.10;100494.00;;;;5108218;28;20047;-75
2021/12/23 04:14:13;;;;;;;0.00;0.00;;;;;16.10;100508.00;;;;5108233;28;20052;-76
2021/12/23 04:16:43;;;;;;;0.00;0.00;;;;;16.00;100507.00;;;;5107828;28;20039;-76
2021/12/23 04:19:12;;;;;;;0.00;0.00;;;;;15.90;100516.00;;;;5108185;28;20046;-75
2021/12/23 04:21:42;;;;;;;0.00;0.00;;;;;15.90;100506.00;;;;5108802;28;20092;-76
2021/12/23 04:24:12;;;;;;;0.00;0.00;;;;;15.80;100495.00;;;;5107318;28;20047;-76
2021/12/23 04:26:41;;;;;;;9.65;0.65;;;;;15.80;100474.00;;;;5108082;28;20456;-76
2021/12/23 04:29:10;;;;;;;0.00;0.00;;;;;15.90;100506.00;;;;5106607;28;20040;-76
2021/12/23 04:31:40;;;;;;;0.00;0.00;;;;;15.90;100500.00;;;;5108678;27;20047;-76
2021/12/23 04:34:09;;;;;;;0.00;0.00;;;;;16.00;100493.00;;;;5108456;28;20167;-76
2021/12/23 04:36:39;;;;;;;0.00;0.00;;;;;15.90;100479.00;;;;5108370;28;20047;-76
2021/12/23 04:39:08;;;;;;;0.00;0.00;;;;;16.00;100458.00;;;;5108247;28;20039;-76
2021/12/23 04:41:38;;;;;;;0.00;0.00;;;;;15.90;100445.00;;;;5107918;28;20039;-75
2021/12/23 04:44:08;;;;;;;0.00;0.00;;;;;16.00;100473.00;;;;5108287;28;20039;-76
2021/12/23 04:46:37;;;;;;;0.00;0.00;;;;;15.90;100476.00;;;;5108431;27;20058;-76
2021/12/23 04:49:07;;;;;;;0.13;0.03;;;;;16.00;100445.00;;;;5107698;28;20417;-76
2021/12/23 04:51:36;;;;;;;0.00;0.00;;;;;16.00;100431.00;;;;5106687;28;20533;-76
2021/12/23 04:54:06;;;;;;;0.00;0.00;;;;;15.90;100444.00;;;;5107677;28;20043;-76
2021/12/23 04:56:35;;;;;;;0.00;0.00;;;;;15.80;100451.00;;;;5107069;28;20138;-75
2021/12/23 04:59:05;;;;;;;0.00;0.00;;;;;15.70;100440.00;;;;5108199;28;20052;-76
2021/12/23 05:01:35;;;;;;;0.00;0.00;;;;;15.60;100463.00;;;;5106616;28;20040;-76
2021/12/23 05:04:04;;;;;;;0.00;0.00;;;;;15.60;100438.00;;;;5107537;28;20051;-76
2021/12/23 05:06:41;;;;;;;0.00;0.00;;;;;15.60;100445.00;;;;5107476;28;20054;-75
2021/12/23 05:09:11;;;;;;;0.00;0.00;;;;;15.60;100426.00;;;;5107227;28;20123;-76
2021/12/23 05:11:41;;;;;;;0.00;0.00;;;;;15.80;100431.00;;;;5107420;28;20035;-76
2021/12/23 05:14:11;;;;;;;0.00;0.00;;;;;15.70;100461.00;;;;5106745;28;20066;-76
2021/12/23 05:16:41;;;;;;;0.00;0.00;;;;;15.60;100458.00;;;;5105802;28;20048;-76
2021/12/23 05:19:11;;;;;;;0.00;0.00;;;;;15.50;100446.00;;;;5106654;28;20044;-76
2021/12/23 05:21:40;;;;;;;0.00;0.00;;;;;15.40;100441.00;;;;5107525;28;20040;-76
2021/12/23 05:24:10;;;;;;;0.00;0.00;;;;;15.40;100446.00;;;;5106992;28;20043;-76
2021/12/23 05:26:40;;;;;;;0.00;0.00;;;;;15.40;100469.00;;;;5107280;28;20394;-75
2021/12/23 05:29:11;;;;;;;0.00;0.00;;;;;15.30;100458.00;;;;5108874;28;20039;-77
2021/12/23 05:31:41;;;;;;;0.00;0.00;;;;;15.30;100462.00;;;;5107611;28;20047;-75
2021/12/23 05:34:11;;;;;;;0.00;0.00;;;;;15.30;100467.00;;;;5107585;28;20089;-77
2021/12/23 05:36:42;;;;;;;0.00;0.00;;;;;15.20;100456.00;;;;5108406;28;20499;-76
2021/12/23 05:39:12;;;;;;;0.00;0.00;;;;;15.20;100454.00;;;;5108000;28;20121;-76
2021/12/23 05:41:41;;;;;;;0.00;0.00;;;;;15.20;100457.00;;;;5107936;28;20088;-76
2021/12/23 05:44:11;;;;;;;0.00;0.00;;;;;15.20;100443.00;;;;5106578;28;20044;-76
2021/12/23 05:46:40;;;;;;;0.00;0.00;;;;;15.30;100439.00;;;;5106815;28;20125;-76
2021/12/23 05:49:10;;;;;;;0.00;0.00;;;;;15.40;100417.00;;;;5107593;28;20524;-75
2021/12/23 05:51:40;;;;;;;0.00;0.00;;;;;15.40;100450.00;;;;5107082;28;20044;-76
2021/12/23 05:54:09;;;;;;;0.00;0.00;;;;;15.40;100440.00;;;;5107513;28;20170;-76
2021/12/23 05:56:39;;;;;;;0.00;0.00;;;;;15.40;100441.00;;;;5107543;28;20044;-75
2021/12/23 05:59:08;;;;;;;0.00;0.00;;;;;15.40;100446.00;;;;5106806;28;20043;-75
2021/12/23 06:01:38;;;;;;;0.00;0.00;;;;;15.30;100440.00;;;;5106685;28;20422;-76
2021/12/23 06:04:08;;;;;;;0.00;0.00;;;;;15.30;100425.00;;;;5106327;28;20055;-76
2021/12/23 06:06:37;;;;;;;0.00;0.00;;;;;15.20;100446.00;;;;5106779;28;20051;-76
2021/12/23 06:09:06;;;;;;;0.00;0.00;;;;;15.20;100465.00;;;;5106710;28;20052;-76
2021/12/23 06:11:36;;;;;;;0.00;0.00;;;;;15.20;100450.00;;;;5106693;28;20438;-75
2021/12/23 06:14:06;;;;;;;0.00;0.00;;;;;15.20;100429.00;;;;5105543;28;20138;-75
2021/12/23 06:16:36;;;;;;;0.00;0.00;;;;;15.30;100429.00;;;;5107038;28;20047;-76
2021/12/23 06:19:05;;;;;;;0.10;0.10;;;;;15.40;100423.00;;;;5105590;28;20055;-76
2021/12/23 06:21:35;;;;;;;0.00;0.00;;;;;15.50;100432.00;;;;5106553;28;20066;-76
2021/12/23 06:24:05;;;;;;;0.00;0.00;;;;;15.60;100433.00;;;;5106515;28;20041;-76
2021/12/23 06:26:35;;;;;;;0.00;0.00;;;;;15.70;100428.00;;;;5107069;28;20051;-76
2021/12/23 06:29:04;;;;;;;0.00;0.00;;;;;15.90;100433.00;;;;5106299;28;20051;-76
2021/12/23 06:31:34;;;;;;;0.00;0.00;;;;;15.90;100460.00;;;;5106411;28;20126;-76
2021/12/23 06:34:03;;;;;;;0.00;0.00;;;;;16.00;100453.00;;;;5106641;28;20545;-76
2021/12/23 06:36:33;;;;;;;0.00;0.00;;;;;16.10;100437.00;;;;5106360;28;20044;-76
2021/12/23 06:39:05;;;;;;;0.00;0.00;;;;;16.20;100443.00;;;;5106379;28;20824;-76
2021/12/23 06:41:35;;;;;;;0.00;0.00;;;;;16.30;100438.00;;;;5105018;28;20047;-76
2021/12/23 06:44:05;;;;;;;0.00;0.00;;;;;16.40;100449.00;;;;5109993;28;20426;-76
2021/12/23 06:46:34;;;;;;;0.00;0.00;;;;;16.40;100437.00;;;;5110337;27;20513;-76
2021/12/23 06:49:15;;;;;;;0.00;0.00;;;;;16.40;100457.00;;;;5110208;28;20044;-75
2021/12/23 06:51:45;;;;;;;0.00;0.00;;;;;16.40;100464.00;;;;5109898;28;20077;-76
2021/12/23 06:54:17;;;;;;;0.00;0.00;;;;;16.50;100462.00;;;;5109785;27;20055;-76
2021/12/23 06:56:47;;;;;;;0.00;0.00;;;;;16.60;100448.00;;;;5109707;28;20047;-76
2021/12/23 06:59:16;;;;;;;0.00;0.00;;;;;16.60;100449.00;;;;5109388;28;20556;-75
2021/12/23 07:01:47;;;;;;;0.00;0.00;;;;;16.60;100432.00;;;;5110027;28;20078;-76
2021/12/23 07:04:20;;;;;;;0.25;0.10;;;;;16.60;100450.00;;;;5110299;28;20063;-76
2021/12/23 07:07:07;;;;;;;0.00;0.00;;;;;16.70;100448.00;;;;5115614;28;20109;-76
2021/12/23 07:09:39;;;;;;;0.00;0.00;;;;;16.80;100459.00;;;;5121919;28;20040;-75
2021/12/23 07:12:11;;;;;;;0.00;0.00;;;;;16.80;100461.00;;;;5117419;28;20039;-76
2021/12/23 07:14:42;;;;;;;0.00;0.00;;;;;16.80;100458.00;;;;5110573;28;20047;-76
2021/12/23 07:17:11;;;;;;;0.25;0.25;;;;;16.70;100434.00;;;;5109378;28;20054;-76
2021/12/23 07:19:41;;;;;;;0.00;0.00;;;;;16.70;100465.00;;;;5108638;28;20078;-75
2021/12/23 07:22:10;;;;;;;0.00;0.00;;;;;16.80;100458.00;;;;5108914;28;20048;-76
2021/12/23 07:24:41;;;;;;;0.00;0.00;;;;;16.90;100451.00;;;;5109848;28;20521;-77
2021/12/23 07:27:10;;;;;;;0.00;0.00;;;;;16.90;100451.00;;;;5109410;28;20043;-76
2021/12/23 07:29:40;;;;;;;0.00;0.00;;;;;16.70;100470.00;;;;5109848;28;20641;-76
2021/12/23 07:32:09;;;;;;;0.00;0.00;;;;;16.60;100478.00;;;;5109508;28;20691;-77
2021/12/23 07:34:40;;;;;;;0.00;0.00;;;;;16.60;100467.00;;;;5108718;28;20050;-77
2021/12/23 07:37:11;;;;;;;0.00;0.00;;;;;16.60;100458.00;;;;5108411;28;20085;-75
2021/12/23 07:39:40;;;;;;;0.00;0.00;;;;;16.50;100454.00;;;;5109790;28;20058;-77
2021/12/23 07:42:31;;;;;;;0.00;0.00;;;;;16.50;100484.00;;;;5109559;28;20051;-77
2021/12/23 07:45:01;;;;;;;0.00;0.00;;;;;16.50;100477.00;;;;5108871;28;20046;-76
2021/12/23 07:47:31;;;;;;;0.00;0.00;;;;;16.50;100471.00;;;;5109320;28;20050;-76
2021/12/23 07:50:01;;;;;;;0.00;0.00;;;;;16.60;100465.00;;;;5109305;28;20050;-76
2021/12/23 07:52:31;;;;;;;0.00;0.00;;;;;16.60;100466.00;;;;5109416;27;20043;-76
2021/12/23 07:55:01;;;;;;;0.00;0.00;;;;;16.60;100456.00;;;;5108861;28;20486;-76
2021/12/23 07:57:30;;;;;;;0.00;0.00;;;;;16.60;100479.00;;;;5109160;28;20145;-76
2021/12/23 08:00:00;;;;;;;0.00;0.00;;;;;16.60;100461.00;;;;5109043;28;20080;-76
2021/12/23 08:02:41;;;;;;;0.00;0.00;;;;;16.60;100485.00;;;;5108317;28;20186;-76
2021/12/23 08:05:11;;;;;;;;;;;;;16.60;100480.00;;;;5109107;28;20067;-76
2021/12/23 08:07:41;;;;;;;0.00;0.00;;;;;16.60;100474.00;;;;5109350;28;19924;-76
2021/12/23 08:10:10;;;;;;;0.00;0.00;;;;;16.70;100483.00;;;;5108665;28;20077;-76
2021/12/23 08:12:40;;;;;;;0.00;0.00;;;;;16.80;100489.00;;;;5109128;27;20101;-76
2021/12/23 08:15:09;;;;;;;0.00;0.00;;;;;16.80;100498.00;;;;5107865;28;20502;-76
2021/12/23 08:17:39;;;;;;;0.57;0.57;;;;;16.90;100501.00;;;;5108668;28;20652;-76
2021/12/23 08:20:12;;;;;;;0.00;0.00;;;;;17.00;100496.00;;;;5107586;28;20506;-76
2021/12/23 08:22:42;;;;;;;0.00;0.00;;;;;17.10;100489.00;;;;5107087;28;20052;-75
2021/12/23 08:25:13;;;;;;;0.03;0.03;;;;;17.10;100491.00;;;;5108169;28;20487;-76
2021/12/23 08:27:43;;;;;;;0.00;0.00;;;;;17.00;100489.00;;;;5108545;28;20086;-76
2021/12/23 08:30:17;;;;;;;0.00;0.00;;;;;17.00;100488.00;;;;5109363;28;20708;-76
2021/12/23 08:32:48;;;;;;;0.00;0.00;;;;;16.90;100502.00;;;;5108252;28;20039;-76
2021/12/23 08:35:19;;;;;;;0.00;0.00;;;;;16.80;100500.00;;;;5108309;28;20136;-77
2021/12/23 08:37:50;;;;;;;0.00;0.00;;;;;16.80;100506.00;;;;5108449;28;20043;-76
2021/12/23 08:40:22;;;;;;;0.00;0.00;;;;;16.70;100489.00;;;;5108533;28;20040;-76
2021/12/23 08:42:53;;;;;;;0.00;0.00;;;;;16.60;100508.00;;;;5109002;28;20090;-76
2021/12/23 08:45:24;;;;;;;0.00;0.00;;;;;16.60;100498.00;;;;5107901;28;20071;-76
2021/12/23 08:47:56;;;;;;;0.00;0.00;;;;;16.80;100505.00;;;;5108589;28;20426;-76
2021/12/23 08:50:30;;;;;;;0.00;0.00;;;;;16.90;100506.00;;;;5108581;28;20470;-77
2021/12/23 08:53:01;;;;;;;0.00;0.00;;;;;17.10;100526.00;;;;5108037;28;20039;-76
2021/12/23 08:55:33;;;;;;;0.00;0.00;;;;;17.10;100499.00;;;;5107777;28;20054;-76
2021/12/23 08:58:04;;;;;;;0.00;0.00;;;;;17.20;100519.00;;;;5107248;28;20358;-76
2021/12/23 09:00:37;;;;;;;0.00;0.00;;;;;17.30;100508.00;;;;5106970;28;20437;-76
2021/12/23 09:03:09;;;;;;;0.00;0.00;;;;;17.30;100498.00;;;;5107385;28;20044;-76
2021/12/23 09:05:41;;;;;;;0.00;0.00;;;;;17.40;100526.00;;;;5106933;28;20149;-76
2021/12/23 09:08:10;;;;;;;0.00;0.00;;;;;17.50;100501.00;;;;5107959;28;20051;-76
2021/12/23 09:10:43;;;;;;;333.38;91.07;;;;;17.60;100525.00;;;;5106957;28;20513;-76
2021/12/23 09:13:13;;;;;;;0.00;0.00;;;;;17.70;100536.00;;;;5106339;28;20043;-76
2021/12/23 09:15:43;;;;;;;0.00;0.00;;;;;17.80;100508.00;;;;5108319;28;20524;-76
2021/12/23 09:18:13;;;;;;;0.00;0.00;;;;;18.00;100518.00;;;;5106310;28;20046;-76
2021/12/23 09:20:43;;;;;;;0.00;0.00;;;;;18.10;100532.00;;;;5107943;28;20055;-76
2021/12/23 09:23:13;;;;;;;0.00;0.00;;;;;18.20;100504.00;;;;5107581;28;20047;-76
2021/12/23 09:25:45;;;;;;;0.00;0.00;;;;;18.20;100539.00;;;;5107265;28;20051;-76
2021/12/23 09:28:27;;;;;;;0.00;0.00;;;;;18.20;100540.00;;;;5107138;28;20402;-75
2021/12/23 09:33:48;;;;;;;0.00;0.00;;;;;18.90;100518.00;;;;5107712;28;20514;-76
2021/12/23 09:36:19;;;;;;;0.00;0.00;;;;;20.90;100443.00;;;;5107421;28;20036;-76
2021/12/23 09:38:49;;;;;;;0.00;0.00;;;;;20.70;100524.00;;;;5107150;28;20047;-76
2021/12/23 09:41:21;;;;;;;0.00;0.00;;;;;19.60;100564.00;;;;5105272;28;20446;-76
2021/12/23 09:43:51;;;;;;;0.00;0.00;;;;;19.10;100557.00;;;;5106660;28;20036;-76
2021/12/23 09:46:22;;;;;;;0.00;0.00;;;;;19.20;100535.00;;;;5106333;28;20040;-76
2021/12/23 09:48:53;;;;;;;0.00;0.00;;;;;19.20;100539.00;;;;5107319;28;20052;-76
2021/12/23 09:51:24;;;;;;;0.00;0.00;;;;;19.00;100553.00;;;;5107484;28;20047;-76
2021/12/23 09:54:03;;;;;;;0.00;0.00;;;;;19.30;100535.00;;;;5106454;28;20158;-75
2021/12/23 09:56:34;;;;;;;0.00;0.00;;;;;19.80;100552.00;;;;5106229;28;20044;-76
2021/12/23 09:59:07;;;;;;;0.00;0.00;;;;;20.00;100546.00;;;;5107161;28;20459;-75
2021/12/23 10:01:37;;;;;;;0.00;0.00;;;;;20.30;100534.00;;;;5105185;28;20276;-76
2021/12/23 10:04:07;;;;;;;0.00;0.00;;;;;20.50;100558.00;;;;5106407;28;20051;-76
2021/12/23 10:06:37;;;;;;;3.50;0.10;;;;;20.60;100529.00;;;;5105351;28;20077;-77
2021/12/23 10:09:06;;;;;;;0.00;0.00;;;;;20.90;100524.00;;;;5105968;28;20044;-76
2021/12/23 10:37:16;;;;;;;0.10;0.10;;;;;21.90;100550.00;;;;5115614;27;20043;-76
2021/12/23 10:39:48;;;;;;;0.00;0.00;;;;;21.70;100563.00;;;;5115098;27;20110;-76
2021/12/23 10:42:20;;;;;;;0.00;0.00;;;;;22.40;100537.00;;;;5116428;27;20594;-77
2021/12/23 10:44:57;;;;;;;0.38;0.38;;;;;22.50;100549.00;;;;5107591;28;21050;-76
2021/12/23 10:48:01;;;;;;;0.00;0.00;;;;;23.00;100526.00;;;;5122742;27;20057;-77
2021/12/23 10:50:43;;;;;;;0.00;0.00;;;;;22.90;100570.00;;;;5115451;27;20089;-77
2021/12/23 10:53:56;;;;;;;0.00;0.00;;;;;22.90;100554.00;;;;5118822;27;20116;-77
2021/12/23 10:59:11;;;;;;;0.22;0.22;;;;;22.90;100557.00;;;;5089656;28;20046;-76
2021/12/23 11:02:04;;;;;;;0.00;0.00;;;;;22.90;100579.00;;;;5118328;27;20055;-77
2021/12/23 11:05:09;;;;;;;0.00;0.00;;;;;23.30;100560.00;;;;5130578;27;20050;-77
2021/12/23 11:07:59;;;;;;;0.00;0.00;;;;;23.50;100547.00;;;;5121836;27;20533;-77
2021/12/23 11:32:07;;;;;;;7.22;0.65;;;;;33.60;100347.00;;;;5109732;28;20055;-76
2021/12/23 11:37:07;;;;;;;0.60;0.25;;;;;29.90;100460.00;;;;5109117;28;20047;-76
2021/12/23 11:42:40;;;;;;;0.00;0.00;;;;;35.00;100377.00;;;;5109373;28;20047;-77
2021/12/23 11:45:10;;;;;;;0.75;0.10;;;;;33.50;100391.00;;;;5109226;28;20051;-78
2021/12/23 11:47:40;;;;;;;0.00;0.00;;;;;33.40;100392.00;;;;5108933;27;20051;-78
2021/12/23 11:50:18;;;;;;;0.00;0.00;;;;;31.70;100560.00;;;;5108731;28;20051;-78
2021/12/23 11:52:48;;;;;;;0.38;0.20;;;;;28.40;100609.00;;;;5108676;28;20507;-78
2021/12/23 11:55:18;;;;;;;0.32;0.20;;;;;27.30;100600.00;;;;5108754;28;20043;-78
2021/12/23 11:57:49;;;;;;;0.00;0.00;;;;;26.70;100608.00;;;;5109039;28;20058;-77
2021/12/23 12:00:32;;;;;;;0.00;0.00;;;;;27.90;100451.00;;;;5110033;28;20521;-78
2021/12/23 12:03:05;;;;;;;0.00;0.00;;;;;28.30;100589.00;;;;5109374;28;20048;-78
2021/12/23 12:05:35;;;;;;;0.00;0.00;;;;;27.20;100616.00;;;;5108344;28;20040;-78
2021/12/23 12:08:11;;;;;;;0.30;0.15;;;;;26.20;100598.00;;;;5108859;28;20044;-77
2021/12/23 12:10:43;;;;;;;0.00;0.00;;;;;26.20;100547.00;;;;5108401;28;20043;-80
2021/12/23 12:13:17;;;;;;;0.00;0.00;;;;;25.70;100630.00;;;;5108900;28;20040;-78
2021/12/23 12:15:49;;;;;;;0.00;0.00;;;;;25.30;100605.00;;;;5108574;28;20066;-77
2021/12/23 12:18:23;;;;;;;0.00;0.00;;;;;26.20;100532.00;;;;5108299;28;20065;-78
2021/12/23 12:20:59;;;;;;;0.10;0.10;;;;;27.70;100554.00;;;;5108833;28;20042;-78
2021/12/23 12:23:36;;;;;;;4.75;1.75;;;;;28.20;100545.00;;;;5108284;28;20105;-78
2021/12/23 12:26:12;;;;;;;0.00;0.00;;;;;29.10;100558.00;;;;5108620;28;20162;-76
2021/12/23 12:28:43;;;;;;;0.00;0.00;;;;;28.40;100631.00;;;;5107321;28;20070;-78
2021/12/23 12:31:21;;;;;;;2.45;1.17;;;;;27.70;100618.00;;;;5109116;28;20514;-77
2021/12/23 12:34:29;;;;;;;0.00;0.00;;;;;26.50;100628.00;;;;5107162;28;20092;-76
2021/12/23 12:37:00;;;;;;;0.00;0.00;;;;;26.40;100620.00;;;;5098197;28;20048;-78
2021/12/23 12:39:36;;;;;;;0.35;0.35;;;;;25.90;100626.00;;;;5108718;28;20055;-79
2021/12/23 12:42:11;;;;;;;1.45;0.30;;;;;26.30;100555.00;;;;5108133;28;20039;-76
2021/12/23 12:44:51;;;;;;;0.00;0.00;;;;;27.70;100532.00;;;;5107472;28;20041;-76
2021/12/23 12:47:30;;;;;;;0.00;0.00;;;;;29.00;100539.00;;;;5107599;28;20048;-78
2021/12/23 12:50:13;;;;;;;0.00;0.00;;;;;29.80;100552.00;;;;5108137;28;20043;-78
2021/12/23 12:52:46;;;;;;;2.08;0.55;;;;;29.80;100560.00;;;;5108237;28;20040;-78
2021/12/23 12:55:23;;;;;;;408.45;57.03;;;;;29.50;100562.00;;;;5107885;28;20050;-74
2021/12/23 12:57:58;;;;;;;9.57;8.73;;;;;29.40;100554.00;;;;5107618;28;20118;-78
2021/12/23 13:00:36;;;;;;;314.60;13.50;;;;;30.20;100550.00;;;;5107486;28;20036;-79
2021/12/23 13:03:17;;;;;;;0.00;0.00;;;;;30.90;100556.00;;;;5106625;28;20051;-77
2021/12/23 13:05:50;;;;;;;0.10;0.10;;;;;31.10;100561.00;;;;5107633;28;20104;-78
2021/12/23 13:08:34;;;;;;;0.00;0.00;;;;;31.10;100619.00;;;;5107518;28;20062;-78
2021/12/23 13:11:12;;;;;;;0.00;0.00;;;;;29.30;100549.00;;;;5108079;28;20096;-77
2021/12/23 13:14:01;;;;;;;0.00;0.00;;;;;30.00;100568.00;;;;5107401;28;20050;-78
2021/12/23 13:16:57;;;;;;;1.00;0.10;;;;;30.80;100575.00;;;;5105950;28;20108;-78
2021/12/23 13:19:33;;;;;;;0.47;0.22;;;;;31.10;100587.00;;;;5106657;28;20403;-77
2021/12/23 13:22:11;;;;;;;1.55;0.43;;;;;30.90;100580.00;;;;5106315;28;20044;-78
2021/12/23 13:24:45;;;;;;;0.00;0.00;;;;;30.70;100576.00;;;;5106806;28;20047;-77
2021/12/23 13:27:15;;;;;;;0.80;0.32;;;;;30.20;100573.00;;;;5107144;28;20036;-77
2021/12/23 13:29:44;;;;;;;0.00;0.00;;;;;29.80;100586.00;;;;5107040;28;20415;-76
2021/12/23 13:32:14;;;;;;;0.63;0.40;;;;;29.90;100583.00;;;;5106974;28;20304;-77
2021/12/23 13:34:43;;;;;;;0.00;0.00;;;;;30.00;100574.00;;;;5107449;28;20054;-79
2021/12/23 13:37:13;;;;;;;8.07;6.32;;;;;29.80;100578.00;;;;5106695;28;20050;-77